Terminal Aerodrome Forecast
Issued by NWS Amarillo, TX

Home | Current Version | Previous Version | Text Only | Print | Product List | Glossary On
Versions: 1 2 3 4 5 6 7 8 9 10 11 12 13 14 15 16 17 18 19
790
FTUS44 KAMA 201735
TAFAMA
TAF
KAMA 201735Z 2018/2118 35010KT P6SM SKC
     FM202200 17006KT P6SM SKC
     FM211500 21014KT P6SM SKC=

USA.gov is the U.S. government's official web portal to all federal, state and local government web resources and services.